Time;durP1;ratioP1;P1;durP2;ratioP2;P2;SDS_P1;SDS_P2;PMS_P1;PMS_P2;Temp;Humidity;BMP_temperature;BMP_pressure;BME280_temperature;BME280_humidity;BME280_pressure;Samples;Min_cycle;Max_cycle;Signal;HPM_P1;HPM_P2
2021/07/30 00:00:56;;;;;;;3.73;3.30;;;24.50;98.70;;;;;;6118887;23;20191;-91
2021/07/30 00:03:25;;;;;;;3.60;3.30;;;24.40;98.70;;;;;;6102783;23;20416;-91
2021/07/30 00:05:52;;;;;;;8.87;3.40;;;24.40;98.80;;;;;;6102951;23;20388;-95
2021/07/30 00:08:19;;;;;;;3.73;3.23;;;24.40;98.80;;;;;;6103161;23;20413;-91
2021/07/30 00:10:45;;;;;;;10.93;3.53;;;24.30;99.00;;;;;;6103028;23;20745;-95
2021/07/30 00:13:11;;;;;;;5.70;3.73;;;24.30;99.00;;;;;;6104021;23;20392;-96
2021/07/30 00:15:37;;;;;;;7.47;3.57;;;24.30;98.90;;;;;;6104656;23;20414;-95
2021/07/30 00:18:03;;;;;;;4.60;3.53;;;24.20;99.00;;;;;;6104192;23;20390;-91
2021/07/30 00:20:29;;;;;;;5.73;3.83;;;24.20;99.10;;;;;;6103954;23;20180;-91
2021/07/30 00:22:54;;;;;;;5.17;3.40;;;24.20;99.20;;;;;;6138643;23;20153;-91
2021/07/30 00:25:20;;;;;;;5.73;4.43;;;24.10;99.30;;;;;;6103018;23;20450;-95
2021/07/30 00:27:46;;;;;;;4.87;4.30;;;24.10;99.40;;;;;;6102892;23;20264;-93
2021/07/30 00:30:12;;;;;;;5.73;3.00;;;24.10;99.40;;;;;;6102472;23;20450;-96
2021/07/30 00:32:38;;;;;;;4.50;3.67;;;24.10;99.50;;;;;;6128500;23;20661;-94
2021/07/30 00:35:05;;;;;;;5.80;2.97;;;24.00;99.40;;;;;;6101881;23;20944;-95
2021/07/30 00:37:34;;;;;;;4.70;3.00;;;24.00;99.50;;;;;;6102675;23;20387;-91
2021/07/30 00:40:00;;;;;;;3.50;3.20;;;24.00;99.50;;;;;;6103145;23;20512;-91
2021/07/30 00:42:25;;;;;;;5.10;4.00;;;24.00;99.60;;;;;;6102807;23;20463;-92
2021/07/30 00:44:51;;;;;;;4.60;4.03;;;24.00;99.90;;;;;;6103152;23;20185;-91
2021/07/30 00:47:18;;;;;;;3.90;3.50;;;24.00;99.40;;;;;;6128749;23;20395;-94
2021/07/30 00:49:44;;;;;;;5.20;4.07;;;24.00;99.50;;;;;;6102591;23;20293;-96
2021/07/30 00:52:10;;;;;;;7.70;3.50;;;23.90;99.60;;;;;;6102656;23;20379;-91
2021/07/30 00:54:35;;;;;;;5.90;3.63;;;23.90;99.60;;;;;;6102543;23;20188;-94
2021/07/30 00:57:01;;;;;;;4.30;3.53;;;23.80;99.70;;;;;;6102890;23;20168;-94
2021/07/30 00:59:28;;;;;;;4.00;3.60;;;23.80;99.70;;;;;;6102384;23;20196;-91
2021/07/30 01:01:54;;;;;;;5.20;3.90;;;23.80;99.80;;;;;;6102423;23;20955;-90
2021/07/30 01:04:20;;;;;;;6.10;4.13;;;23.70;99.90;;;;;;6128580;23;20410;-91
2021/07/30 01:06:46;;;;;;;6.03;3.37;;;23.70;99.90;;;;;;6102442;23;20424;-94
2021/07/30 01:09:12;;;;;;;5.53;3.80;;;23.70;99.70;;;;;;6102233;23;20211;-95
2021/07/30 01:11:38;;;;;;;5.63;4.40;;;23.80;99.90;;;;;;6102343;23;20391;-91
2021/07/30 01:14:05;;;;;;;4.77;3.70;;;23.70;99.80;;;;;;6128129;23;20184;-91
2021/07/30 01:16:30;;;;;;;6.43;4.00;;;23.70;99.90;;;;;;6102801;23;20387;-92
2021/07/30 01:18:56;;;;;;;6.80;4.13;;;23.70;99.90;;;;;;6127993;23;20402;-96
2021/07/30 01:21:28;;;;;;;5.60;4.30;;;23.70;99.90;;;;;;6102324;23;20236;-92
2021/07/30 01:23:54;;;;;;;4.90;3.80;;;23.70;99.90;;;;;;6102441;23;20234;-96
2021/07/30 01:26:20;;;;;;;5.00;4.20;;;23.70;99.90;;;;;;6102536;23;20380;-92
2021/07/30 01:28:46;;;;;;;5.13;3.73;;;23.60;99.70;;;;;;6102010;23;20188;-90
2021/07/30 01:31:12;;;;;;;5.90;4.50;;;23.60;99.30;;;;;;6102638;23;20156;-95
2021/07/30 01:33:38;;;;;;;4.90;4.20;;;23.60;99.10;;;;;;6101929;23;20533;-90
2021/07/30 01:36:04;;;;;;;5.30;4.30;;;23.60;99.10;;;;;;6152104;23;20148;-91
2021/07/30 01:38:31;;;;;;;5.33;4.17;;;23.60;99.20;;;;;;6131705;23;20212;-96
2021/07/30 01:41:08;;;;;;;4.07;3.67;;;23.60;99.40;;;;;;6131609;23;20390;-91
2021/07/30 01:43:39;;;;;;;5.40;3.93;;;23.60;99.50;;;;;;6135290;23;20457;-92
2021/07/30 01:46:05;;;;;;;4.30;3.80;;;23.60;99.40;;;;;;6138370;23;20390;-96
2021/07/30 01:48:31;;;;;;;5.87;4.13;;;23.60;99.80;;;;;;6124386;23;20456;-91
2021/07/30 01:50:57;;;;;;;6.70;4.53;;;23.60;99.90;;;;;;6159582;23;20404;-93
2021/07/30 01:53:23;;;;;;;4.30;3.90;;;23.60;99.90;;;;;;6132372;23;20167;-91
2021/07/30 01:55:48;;;;;;;6.90;4.60;;;23.50;99.90;;;;;;6168114;23;20160;-92
2021/07/30 01:58:14;;;;;;;5.17;4.00;;;23.50;99.90;;;;;;6162676;23;20151;-91
2021/07/30 02:00:40;;;;;;;3.93;3.63;;;23.40;99.90;;;;;;6131702;23;20183;-92
2021/07/30 02:03:06;;;;;;;6.60;4.00;;;23.40;99.90;;;;;;6131603;23;20163;-93
2021/07/30 02:05:31;;;;;;;4.70;3.93;;;23.30;99.90;;;;;;6135567;23;20187;-95
2021/07/30 02:07:57;;;;;;;4.90;4.10;;;23.30;99.90;;;;;;6151357;23;20905;-92
2021/07/30 02:10:23;;;;;;;4.90;4.30;;;23.20;99.90;;;;;;6138308;23;20202;-96
2021/07/30 02:15:32;;;;;;;5.40;3.80;;;23.10;99.90;;;;;;6160216;23;20221;-92
2021/07/30 02:17:58;;;;;;;5.73;4.13;;;23.20;99.90;;;;;;6134619;23;20378;-93
2021/07/30 02:20:24;;;;;;;4.53;4.00;;;23.20;99.90;;;;;;6134100;23;20262;-96
2021/07/30 02:22:50;;;;;;;4.93;4.30;;;23.10;99.90;;;;;;6134125;23;20206;-96
2021/07/30 02:25:15;;;;;;;8.17;5.60;;;23.20;99.90;;;;;;6133905;23;20179;-95
2021/07/30 02:27:41;;;;;;;4.40;3.73;;;23.20;99.90;;;;;;6133953;23;20186;-91
2021/07/30 02:30:07;;;;;;;5.27;4.50;;;23.20;99.90;;;;;;6133797;23;20253;-96
2021/07/30 02:32:33;;;;;;;5.90;4.20;;;23.20;99.90;;;;;;6133616;23;20164;-91
2021/07/30 02:34:59;;;;;;;4.67;4.03;;;23.30;99.90;;;;;;6158914;23;20494;-96
2021/07/30 02:37:24;;;;;;;5.33;4.30;;;23.30;99.90;;;;;;6133537;23;20161;-95
2021/07/30 02:39:50;;;;;;;6.13;4.50;;;23.30;99.90;;;;;;6133589;23;20183;-91
2021/07/30 02:42:16;;;;;;;7.30;4.47;;;23.30;99.90;;;;;;6159382;23;20219;-94
2021/07/30 02:44:42;;;;;;;6.37;4.50;;;23.30;99.90;;;;;;6133551;23;20183;-91
2021/07/30 02:47:07;;;;;;;5.17;4.40;;;23.30;99.90;;;;;;6133372;23;20163;-92
2021/07/30 02:49:33;;;;;;;5.10;4.70;;;23.30;99.90;;;;;;6159878;23;20645;-96
2021/07/30 02:51:59;;;;;;;5.40;4.40;;;23.30;99.90;;;;;;6133372;23;20163;-96
2021/07/30 02:54:24;;;;;;;7.43;4.70;;;23.30;99.90;;;;;;6133496;23;20190;-96
2021/07/30 02:56:50;;;;;;;5.43;4.43;;;23.30;99.90;;;;;;6134151;23;20162;-95
2021/07/30 02:59:16;;;;;;;5.00;4.23;;;23.20;99.90;;;;;;6133877;23;20183;-96
2021/07/30 03:01:42;;;;;;;7.37;3.87;;;23.20;99.90;;;;;;6133093;23;20163;-92
2021/07/30 03:04:07;;;;;;;5.37;4.47;;;23.20;99.90;;;;;;6133634;23;20645;-91
2021/07/30 03:06:33;;;;;;;4.40;4.00;;;23.10;99.90;;;;;;6159455;23;20149;-94
2021/07/30 03:08:59;;;;;;;5.50;4.07;;;23.10;99.90;;;;;;6133457;23;20223;-92
2021/07/30 03:11:25;;;;;;;6.77;4.70;;;23.10;99.90;;;;;;6133797;23;20159;-92
2021/07/30 03:13:50;;;;;;;5.00;4.33;;;23.10;99.90;;;;;;6132589;23;20190;-91
2021/07/30 03:16:16;;;;;;;5.20;4.60;;;23.10;99.90;;;;;;6158643;23;20171;-92
2021/07/30 03:18:45;;;;;;;4.60;4.20;;;23.10;99.90;;;;;;6133088;23;20290;-96
2021/07/30 03:21:10;;;;;;;5.53;4.70;;;23.10;99.90;;;;;;6133483;23;20155;-96
2021/07/30 03:23:36;;;;;;;6.03;4.60;;;23.10;99.90;;;;;;6133510;23;20886;-91
2021/07/30 03:26:02;;;;;;;5.07;4.67;;;23.10;99.90;;;;;;6132492;23;20166;-96
2021/07/30 03:28:28;;;;;;;4.63;4.13;;;23.00;99.90;;;;;;6159290;23;20159;-96
2021/07/30 03:30:59;;;;;;;4.80;4.07;;;23.00;99.90;;;;;;6132981;23;20445;-96
2021/07/30 03:33:25;;;;;;;5.00;3.97;;;23.00;99.90;;;;;;6133627;23;20151;-96
2021/07/30 03:35:51;;;;;;;5.23;4.73;;;23.00;99.90;;;;;;6133224;23;20425;-90
2021/07/30 03:38:17;;;;;;;7.60;4.70;;;22.90;99.90;;;;;;6132797;23;20401;-92
2021/07/30 03:40:43;;;;;;;5.40;4.60;;;22.90;99.90;;;;;;6133771;23;20203;-95
2021/07/30 03:43:09;;;;;;;6.50;4.90;;;22.90;99.90;;;;;;6142669;23;20170;-95
2021/07/30 03:45:35;;;;;;;6.47;4.83;;;23.00;99.90;;;;;;6133945;23;20409;-93
2021/07/30 03:48:01;;;;;;;8.37;4.80;;;23.00;99.90;;;;;;6133028;23;20381;-92
2021/07/30 03:50:27;;;;;;;6.73;4.37;;;23.00;99.90;;;;;;6163368;23;20445;-96
2021/07/30 03:52:53;;;;;;;5.77;4.30;;;23.00;99.90;;;;;;6139661;23;20163;-90
2021/07/30 03:55:19;;;;;;;4.30;3.77;;;22.90;99.90;;;;;;6167721;23;20465;-94
2021/07/30 03:57:45;;;;;;;5.30;4.10;;;22.90;99.90;;;;;;6145865;23;20159;-92
2021/07/30 04:00:11;;;;;;;4.23;3.70;;;22.90;99.90;;;;;;6135761;23;20183;-92
2021/07/30 04:02:37;;;;;;;6.30;5.00;;;22.90;99.90;;;;;;6134704;23;20241;-95
2021/07/30 04:05:03;;;;;;;7.37;5.10;;;22.90;99.90;;;;;;6142394;23;20429;-91
2021/07/30 04:07:29;;;;;;;7.27;5.33;;;22.90;99.90;;;;;;6143656;23;20164;-96
2021/07/30 04:09:55;;;;;;;5.53;4.93;;;22.90;99.90;;;;;;6141193;23;20514;-94
2021/07/30 04:12:22;;;;;;;6.37;4.67;;;23.00;99.90;;;;;;6134056;23;20169;-92
2021/07/30 04:14:48;;;;;;;8.17;4.53;;;22.90;99.90;;;;;;6147922;23;20504;-96
2021/07/30 04:17:17;;;;;;;5.73;4.60;;;22.90;99.90;;;;;;6152478;23;20393;-95
2021/07/30 04:19:46;;;;;;;6.23;4.17;;;22.90;99.90;;;;;;6139372;23;20429;-92
2021/07/30 04:22:13;;;;;;;10.50;4.97;;;22.90;99.90;;;;;;6144348;23;20476;-94
2021/07/30 04:24:39;;;;;;;7.63;4.40;;;22.90;99.90;;;;;;6144039;23;20417;-92
2021/07/30 04:27:06;;;;;;;7.90;5.10;;;23.00;99.90;;;;;;6163646;23;20376;-93
2021/07/30 04:29:36;;;;;;;6.50;4.47;;;23.00;99.90;;;;;;6135383;23;20547;-96
2021/07/30 04:32:06;;;;;;;6.37;4.40;;;23.00;99.90;;;;;;6145705;23;20371;-95
2021/07/30 04:34:32;;;;;;;6.90;4.80;;;23.00;99.90;;;;;;6138301;23;20487;-95
2021/07/30 04:36:58;;;;;;;6.60;4.93;;;23.10;99.90;;;;;;6142418;23;20860;-95
2021/07/30 04:39:23;;;;;;;5.60;4.17;;;23.10;99.90;;;;;;6160171;23;20203;-96
2021/07/30 04:41:49;;;;;;;6.30;4.40;;;23.10;99.90;;;;;;6142182;23;20377;-93
2021/07/30 04:44:15;;;;;;;8.00;5.20;;;23.20;99.90;;;;;;6140252;23;20547;-96
2021/07/30 04:46:41;;;;;;;6.40;5.40;;;23.20;99.90;;;;;;6133146;23;20661;-95
2021/07/30 04:49:06;;;;;;;7.00;4.40;;;23.20;99.90;;;;;;6137321;23;20210;-96
2021/07/30 04:51:33;;;;;;;8.67;4.87;;;23.20;99.90;;;;;;6147481;23;20165;-93
2021/07/30 04:53:59;;;;;;;5.43;4.67;;;23.30;99.90;;;;;;6150663;23;20168;-94
2021/07/30 04:56:25;;;;;;;4.57;3.70;;;23.30;99.90;;;;;;6138481;23;20423;-96
2021/07/30 04:58:51;;;;;;;4.30;3.90;;;23.30;99.90;;;;;;6151823;23;20183;-92
2021/07/30 05:01:17;;;;;;;6.80;5.07;;;23.40;99.90;;;;;;6136646;23;20461;-92
2021/07/30 05:03:42;;;;;;;5.13;4.63;;;23.40;99.90;;;;;;6133923;23;20179;-93
2021/07/30 05:06:16;;;;;;;5.50;4.63;;;23.50;99.90;;;;;;6137271;23;20172;-94
2021/07/30 05:08:42;;;;;;;9.33;4.60;;;23.50;99.90;;;;;;6136068;23;20417;-94
2021/07/30 05:11:08;;;;;;;5.23;3.83;;;23.60;99.90;;;;;;6132792;23;20389;-91
2021/07/30 05:13:34;;;;;;;5.17;3.90;;;23.60;99.90;;;;;;6146813;23;20402;-94
2021/07/30 05:16:05;;;;;;;6.40;4.77;;;23.60;99.90;;;;;;6137689;23;20377;-92
2021/07/30 05:18:30;;;;;;;5.27;4.23;;;23.70;99.90;;;;;;6146515;23;20397;-92
2021/07/30 05:20:56;;;;;;;4.80;4.30;;;23.70;99.90;;;;;;6132802;23;20456;-93
2021/07/30 05:23:22;;;;;;;5.33;4.30;;;23.70;99.90;;;;;;6138270;23;20277;-91
2021/07/30 05:25:57;;;;;;;6.23;3.90;;;23.70;99.90;;;;;;6133965;23;20151;-89
2021/07/30 05:28:23;;;;;;;4.90;4.07;;;23.80;99.90;;;;;;6134239;23;20159;-93
2021/07/30 05:30:49;;;;;;;4.53;4.13;;;23.80;99.90;;;;;;6135033;23;20463;-93
2021/07/30 05:33:14;;;;;;;5.03;4.03;;;23.90;99.90;;;;;;6142043;23;20262;-92
2021/07/30 05:35:40;;;;;;;4.90;3.93;;;23.90;99.90;;;;;;6131296;23;20202;-92
2021/07/30 05:38:06;;;;;;;5.80;5.00;;;24.00;99.90;;;;;;6131615;23;20163;-93
2021/07/30 05:40:34;;;;;;;5.80;4.40;;;24.00;99.90;;;;;;6159131;23;20185;-95
2021/07/30 05:43:00;;;;;;;6.10;4.27;;;24.10;99.90;;;;;;6160126;23;20156;-88
2021/07/30 05:45:25;;;;;;;5.93;4.43;;;24.10;99.90;;;;;;6159548;23;20417;-96
2021/07/30 05:47:51;;;;;;;6.73;4.53;;;24.20;99.90;;;;;;6137369;23;20156;-94
2021/07/30 05:50:18;;;;;;;5.27;4.40;;;24.20;99.90;;;;;;6137562;23;20207;-92
2021/07/30 05:52:44;;;;;;;5.70;4.40;;;24.20;99.90;;;;;;6129503;23;20383;-95
2021/07/30 05:55:10;;;;;;;5.00;4.47;;;24.30;99.90;;;;;;6155855;23;20405;-91
2021/07/30 05:57:36;;;;;;;6.43;4.77;;;24.30;99.90;;;;;;6155024;23;20633;-89
2021/07/30 06:00:03;;;;;;;4.80;4.40;;;24.40;99.90;;;;;;6130795;23;20422;-94
2021/07/30 06:02:29;;;;;;;5.07;4.50;;;24.50;99.90;;;;;;6130927;23;20218;-95
2021/07/30 06:04:55;;;;;;;7.00;4.83;;;24.50;99.90;;;;;;6158513;23;20414;-91
2021/07/30 06:07:21;;;;;;;4.70;4.17;;;24.50;99.90;;;;;;6132969;23;20184;-93
2021/07/30 06:09:46;;;;;;;6.17;4.50;;;24.60;99.90;;;;;;6144163;23;20250;-93
2021/07/30 06:12:12;;;;;;;5.03;4.53;;;24.70;99.90;;;;;;6165059;23;20853;-90
2021/07/30 06:14:39;;;;;;;4.90;4.10;;;24.80;99.90;;;;;;6137405;23;20177;-92
2021/07/30 06:17:04;;;;;;;5.70;4.67;;;24.90;99.90;;;;;;6133476;23;20165;-94
2021/07/30 06:19:30;;;;;;;5.77;4.47;;;25.00;99.90;;;;;;6162615;23;20439;-93
2021/07/30 06:21:57;;;;;;;4.97;4.47;;;25.10;99.90;;;;;;6136660;23;20188;-90
2021/07/30 06:24:24;;;;;;;4.93;4.20;;;25.20;99.90;;;;;;6145057;23;20186;-91
2021/07/30 06:26:49;;;;;;;5.13;4.33;;;25.20;99.90;;;;;;6145558;23;20404;-93
2021/07/30 06:29:15;;;;;;;4.53;3.87;;;25.30;99.90;;;;;;6135264;23;20451;-91
2021/07/30 06:31:44;;;;;;;7.63;4.80;;;25.40;99.90;;;;;;6151293;23;20176;-93
2021/07/30 06:34:10;;;;;;;10.40;5.20;;;25.40;99.90;;;;;;6134113;23;20213;-93
2021/07/30 06:36:38;;;;;;;4.53;4.13;;;25.60;99.90;;;;;;6133899;23;20385;-92
2021/07/30 06:39:05;;;;;;;6.10;4.30;;;25.70;99.90;;;;;;6164644;23;20404;-94
2021/07/30 06:41:31;;;;;;;4.30;3.90;;;25.80;99.90;;;;;;6160860;23;20440;-95
2021/07/30 06:43:57;;;;;;;4.77;4.37;;;25.90;99.90;;;;;;6133887;23;20593;-91
2021/07/30 06:46:23;;;;;;;6.43;4.17;;;26.00;99.90;;;;;;6130652;23;20384;-94
2021/07/30 06:48:48;;;;;;;5.93;4.40;;;26.10;99.90;;;;;;6131016;23;20417;-91
2021/07/30 06:51:14;;;;;;;4.90;4.00;;;26.20;99.90;;;;;;6131075;23;20178;-94
2021/07/30 06:53:40;;;;;;;5.47;4.17;;;26.20;99.90;;;;;;6130019;23;20183;-89
2021/07/30 06:56:13;;;;;;;5.20;4.53;;;26.30;99.90;;;;;;6156398;23;20412;-90
2021/07/30 06:58:39;;;;;;;5.00;4.27;;;26.40;99.90;;;;;;6130831;23;20424;-93
2021/07/30 07:01:05;;;;;;;4.90;3.87;;;26.50;99.90;;;;;;6157164;23;20381;-92
2021/07/30 07:03:31;;;;;;;5.20;4.00;;;26.60;99.90;;;;;;6130199;23;20928;-92
2021/07/30 07:05:57;;;;;;;5.70;4.53;;;26.60;99.90;;;;;;6132354;23;20389;-93
2021/07/30 07:08:23;;;;;;;5.33;4.10;;;26.70;99.80;;;;;;6160742;23;20376;-91
2021/07/30 07:10:49;;;;;;;5.20;3.90;;;26.80;99.90;;;;;;6164934;23;20421;-91
2021/07/30 07:13:20;;;;;;;4.13;3.50;;;26.80;99.80;;;;;;6158761;23;20151;-91
2021/07/30 07:15:47;;;;;;;4.60;4.10;;;26.90;99.50;;;;;;6132967;23;20494;-93
2021/07/30 07:18:13;;;;;;;6.77;4.20;;;27.00;99.30;;;;;;6133085;23;20400;-93
2021/07/30 07:20:40;;;;;;;5.47;4.70;;;27.10;98.90;;;;;;6132015;23;20883;-93
2021/07/30 07:23:06;;;;;;;4.70;4.17;;;27.20;99.00;;;;;;6132504;23;20414;-90
2021/07/30 07:25:35;;;;;;;4.40;3.93;;;27.30;99.30;;;;;;6157824;23;20401;-93
2021/07/30 07:28:01;;;;;;;7.07;4.17;;;27.40;98.90;;;;;;6133654;23;20377;-93
2021/07/30 07:30:26;;;;;;;4.90;4.40;;;27.50;99.30;;;;;;6146295;23;20437;-94
2021/07/30 07:32:52;;;;;;;3.23;2.90;;;27.60;98.20;;;;;;6134727;23;20158;-94
2021/07/30 07:35:18;;;;;;;5.80;4.60;;;27.70;98.40;;;;;;6113657;23;20210;-90
2021/07/30 07:37:44;;;;;;;37.93;26.20;;;27.80;98.60;;;;;;6103968;23;20390;-90
2021/07/30 07:40:10;;;;;;;23.27;18.50;;;27.90;98.10;;;;;;6101494;23;20609;-93
2021/07/30 07:42:36;;;;;;;4.60;3.80;;;28.00;97.30;;;;;;6133888;23;20154;-95
2021/07/30 07:45:02;;;;;;;6.10;4.60;;;28.10;97.60;;;;;;6109314;23;20425;-94
2021/07/30 07:47:28;;;;;;;6.30;3.87;;;28.10;97.60;;;;;;6104886;23;20397;-94
2021/07/30 07:49:54;;;;;;;4.80;3.67;;;28.20;97.50;;;;;;6102469;23;20670;-93
2021/07/30 07:52:25;;;;;;;4.70;3.70;;;28.40;97.50;;;;;;6102990;23;20390;-94
2021/07/30 07:54:52;;;;;;;4.77;3.97;;;28.50;96.60;;;;;;6100357;23;20258;-95
2021/07/30 07:57:17;;;;;;;4.13;3.70;;;28.50;96.60;;;;;;6149323;23;20403;-90
2021/07/30 07:59:43;;;;;;;4.90;4.00;;;28.60;96.60;;;;;;6101519;23;20903;-91
2021/07/30 08:02:09;;;;;;;3.80;3.50;;;28.70;96.40;;;;;;6130186;23;20166;-92
2021/07/30 08:04:35;;;;;;;4.43;4.00;;;28.90;96.10;;;;;;6099259;23;20203;-91
2021/07/30 08:07:02;;;;;;;5.10;4.60;;;28.90;96.50;;;;;;6126415;23;20158;-94
2021/07/30 08:09:29;;;;;;;3.60;3.30;;;29.10;96.00;;;;;;6100385;23;20449;-95
2021/07/30 08:11:56;;;;;;;3.70;3.40;;;29.20;95.80;;;;;;6102888;23;20402;-94
2021/07/30 08:14:22;;;;;;;6.47;3.90;;;29.30;95.60;;;;;;6110934;23;20400;-95
2021/07/30 08:16:49;;;;;;;4.90;3.90;;;29.40;95.10;;;;;;6103532;23;20413;-91
2021/07/30 08:19:16;;;;;;;3.90;3.60;;;29.50;94.60;;;;;;6108107;23;20413;-94
2021/07/30 08:21:41;;;;;;;5.00;4.00;;;29.60;94.40;;;;;;6107717;23;20404;-90
2021/07/30 08:24:07;;;;;;;4.83;4.33;;;29.60;94.30;;;;;;6108926;23;20412;-91
2021/07/30 08:26:36;;;;;;;4.07;3.67;;;29.70;94.50;;;;;;6106932;23;20233;-92
2021/07/30 08:29:02;;;;;;;4.27;3.87;;;29.80;94.40;;;;;;6126113;23;20401;-92
2021/07/30 08:31:27;;;;;;;5.90;4.00;;;29.80;93.80;;;;;;6105621;23;20407;-92
2021/07/30 08:33:54;;;;;;;4.37;3.97;;;29.90;93.90;;;;;;6106212;23;20205;-93
2021/07/30 08:36:22;;;;;;;3.67;3.37;;;30.00;93.90;;;;;;6138109;23;20151;-96
2021/07/30 08:38:55;;;;;;;4.40;3.73;;;30.10;93.90;;;;;;6137167;23;20396;-96
2021/07/30 08:41:22;;;;;;;4.23;3.83;;;30.20;93.70;;;;;;6163443;23;20396;-95
2021/07/30 08:43:55;;;;;;;4.00;3.67;;;30.30;93.40;;;;;;6139178;23;20402;-96
2021/07/30 08:46:24;;;;;;;5.33;4.00;;;30.40;93.30;;;;;;6159613;23;20399;-96
2021/07/30 08:48:55;;;;;;;3.87;3.57;;;30.40;92.90;;;;;;6135189;23;20414;-91
2021/07/30 08:51:22;;;;;;;3.23;2.93;;;30.50;92.50;;;;;;6137979;23;20398;-94
2021/07/30 08:53:56;;;;;;;3.80;3.50;;;30.60;92.80;;;;;;6136922;23;20486;-95
2021/07/30 08:56:29;;;;;;;4.07;3.30;;;30.70;92.40;;;;;;6141351;23;20383;-91
2021/07/30 08:58:55;;;;;;;3.60;3.10;;;30.80;92.30;;;;;;6150622;23;20470;-72
2021/07/30 09:01:20;;;;;;;3.53;3.23;;;31.00;91.90;;;;;;6185987;23;20372;-67
2021/07/30 09:03:46;;;;;;;4.43;4.03;;;31.10;91.90;;;;;;6185996;23;20166;-67
2021/07/30 09:06:19;;;;;;;3.63;3.33;;;31.20;91.10;;;;;;6180970;23;20603;-66
2021/07/30 09:09:02;;;;;;;4.40;4.00;;;31.30;91.50;;;;;;6185744;23;20399;-71
2021/07/30 09:11:36;;;;;;;3.70;3.30;;;31.40;91.30;;;;;;6184288;23;20395;-67
2021/07/30 09:14:05;;;;;;;6.00;3.50;;;31.50;91.60;;;;;;6156071;23;20456;-67
2021/07/30 09:16:45;;;;;;;3.53;3.30;;;31.60;91.30;;;;;;6187492;23;20419;-67
2021/07/30 09:19:11;;;;;;;3.50;3.20;;;31.70;90.70;;;;;;6182312;23;20414;-68
2021/07/30 09:21:37;;;;;;;4.47;3.13;;;31.80;89.20;;;;;;6158085;23;20398;-68
2021/07/30 09:24:08;;;;;;;4.47;3.47;;;31.90;88.40;;;;;;6186334;23;20425;-72
2021/07/30 09:26:36;;;;;;;3.57;3.27;;;31.90;89.00;;;;;;6184735;23;20217;-72
2021/07/30 09:29:10;;;;;;;3.63;3.30;;;32.00;88.20;;;;;;6184806;23;20757;-67
2021/07/30 09:31:44;;;;;;;4.77;3.30;;;32.10;89.60;;;;;;6184506;23;20360;-67
2021/07/30 09:34:20;;;;;;;3.50;3.20;;;32.10;90.00;;;;;;6157651;23;20537;-67
2021/07/30 09:36:50;;;;;;;3.70;3.30;;;32.20;88.60;;;;;;6183344;23;20359;-67
2021/07/30 09:39:17;;;;;;;2.73;2.53;;;32.40;86.60;;;;;;6184638;23;20847;-72
2021/07/30 09:41:54;;;;;;;5.00;4.50;;;32.40;86.10;;;;;;6186193;23;20850;-72
2021/07/30 09:44:20;;;;;;;4.00;3.30;;;32.40;86.90;;;;;;6186531;23;20410;-67
2021/07/30 09:47:05;;;;;;;4.63;3.37;;;32.50;87.90;;;;;;6187284;23;20368;-71
2021/07/30 09:49:44;;;;;;;4.30;3.43;;;32.50;87.10;;;;;;6159785;23;20205;-72
2021/07/30 09:52:12;;;;;;;3.63;3.33;;;32.60;84.80;;;;;;6188169;23;20838;-67
2021/07/30 09:54:44;;;;;;;3.17;2.87;;;32.60;85.00;;;;;;6186833;23;20419;-72
2021/07/30 09:57:11;;;;;;;3.03;2.83;;;32.60;83.00;;;;;;6159910;23;20384;-72
2021/07/30 09:59:41;;;;;;;3.87;3.57;;;32.60;83.90;;;;;;6155747;23;20451;-72
2021/07/30 10:02:12;;;;;;;2.97;2.73;;;32.60;84.00;;;;;;6182762;23;20371;-67
2021/07/30 10:04:43;;;;;;;3.43;3.13;;;32.70;84.20;;;;;;6159553;23;20423;-71
2021/07/30 10:07:11;;;;;;;3.73;2.93;;;32.70;83.50;;;;;;6182208;23;20353;-67
2021/07/30 10:09:37;;;;;;;3.97;3.10;;;32.80;83.40;;;;;;6187512;23;20474;-72
2021/07/30 10:12:05;;;;;;;4.30;3.23;;;32.80;83.40;;;;;;6188189;23;20365;-67
2021/07/30 10:14:30;;;;;;;3.10;2.80;;;32.80;82.40;;;;;;6188774;23;20215;-72
2021/07/30 10:17:06;;;;;;;3.50;3.20;;;32.80;82.50;;;;;;6161503;23;20842;-67
2021/07/30 10:19:34;;;;;;;4.30;3.90;;;32.80;82.60;;;;;;6183886;23;20235;-71
2021/07/30 10:22:03;;;;;;;3.57;3.10;;;32.80;81.10;;;;;;6159686;23;20514;-67
2021/07/30 10:24:32;;;;;;;4.00;3.70;;;32.80;81.70;;;;;;6185877;23;20559;-66
2021/07/30 10:27:02;;;;;;;4.17;3.50;;;32.80;81.60;;;;;;6183886;23;20364;-67
2021/07/30 10:30:00;;;;;;;3.60;3.30;;;32.80;81.80;;;;;;6157687;23;20447;-71
2021/07/30 10:32:45;;;;;;;3.37;3.07;;;32.90;82.20;;;;;;6158319;23;20388;-72
2021/07/30 10:35:12;;;;;;;4.33;3.60;;;32.90;80.80;;;;;;6185904;23;20415;-67
2021/07/30 10:37:42;;;;;;;3.90;3.50;;;32.90;81.00;;;;;;6159243;23;20380;-72
2021/07/30 10:40:20;;;;;;;3.90;3.20;;;33.00;81.40;;;;;;6158510;23;20423;-71
2021/07/30 10:43:11;;;;;;;4.50;4.10;;;32.90;83.80;;;;;;6185811;23;20373;-72
2021/07/30 10:45:39;;;;;;;4.20;3.67;;;32.90;80.90;;;;;;6185704;23;20411;-67
2021/07/30 10:48:13;;;;;;;3.60;3.30;;;32.90;81.00;;;;;;6185134;23;20385;-67
2021/07/30 10:50:48;;;;;;;3.60;3.30;;;33.00;81.00;;;;;;6184574;23;20732;-67
2021/07/30 10:53:38;;;;;;;3.60;3.30;;;33.00;81.10;;;;;;6186336;23;20364;-71
2021/07/30 10:56:26;;;;;;;3.50;3.20;;;33.10;81.00;;;;;;6185697;23;20390;-67
2021/07/30 10:58:53;;;;;;;3.60;3.30;;;33.10;79.30;;;;;;6159451;23;20443;-67
2021/07/30 11:01:27;;;;;;;4.40;3.57;;;33.10;81.00;;;;;;6185269;23;20811;-71
2021/07/30 11:03:53;;;;;;;4.70;3.57;;;33.10;80.70;;;;;;6180488;23;20404;-72
2021/07/30 11:06:20;;;;;;;3.93;3.63;;;33.10;80.60;;;;;;6185070;23;20487;-72
2021/07/30 11:09:06;;;;;;;6.00;3.70;;;33.20;80.10;;;;;;6153928;23;20166;-67
2021/07/30 11:11:42;;;;;;;4.40;3.30;;;33.30;80.10;;;;;;6180159;23;20560;-72
2021/07/30 11:14:14;;;;;;;4.40;3.87;;;33.30;79.10;;;;;;6180274;23;20441;-67
2021/07/30 11:16:47;;;;;;;3.20;2.90;;;33.30;80.20;;;;;;6182308;23;20368;-68
2021/07/30 11:19:14;;;;;;;3.67;2.87;;;33.40;79.90;;;;;;6180070;23;20416;-72
2021/07/30 11:21:40;;;;;;;11.53;9.33;;;33.40;79.50;;;;;;6155420;23;20396;-67
2021/07/30 11:24:06;;;;;;;3.77;3.43;;;33.50;78.50;;;;;;6179928;23;21052;-72
2021/07/30 11:26:34;;;;;;;4.17;3.73;;;33.50;78.50;;;;;;6154054;23;20176;-67
2021/07/30 11:29:02;;;;;;;3.83;3.43;;;33.40;77.50;;;;;;6179403;23;20447;-72
2021/07/30 11:31:28;;;;;;;3.90;3.50;;;33.40;77.90;;;;;;6154657;23;20497;-72
2021/07/30 11:33:55;;;;;;;3.60;3.30;;;33.40;80.00;;;;;;6179886;23;20404;-71
2021/07/30 11:36:21;;;;;;;4.00;3.60;;;33.30;81.30;;;;;;6153350;23;20396;-67
2021/07/30 11:38:47;;;;;;;3.73;3.30;;;33.30;82.50;;;;;;6154537;23;20470;-68
2021/07/30 11:41:14;;;;;;;3.50;3.10;;;33.30;83.50;;;;;;6183278;23;20423;-67
2021/07/30 11:43:59;;;;;;;5.30;3.70;;;33.30;83.40;;;;;;6156899;23;20411;-71
2021/07/30 11:46:26;;;;;;;4.43;4.00;;;33.30;79.20;;;;;;6183526;23;20368;-72
2021/07/30 11:48:51;;;;;;;3.70;3.03;;;33.30;79.50;;;;;;6158708;23;20400;-67
2021/07/30 11:51:21;;;;;;;3.50;3.07;;;33.30;79.20;;;;;;6157729;23;20403;-67
2021/07/30 11:53:51;;;;;;;4.93;3.27;;;33.30;82.00;;;;;;6183709;23;20159;-72
2021/07/30 11:56:18;;;;;;;4.23;3.30;;;33.30;80.00;;;;;;6155110;23;20380;-67
2021/07/30 11:59:03;;;;;;;3.83;3.37;;;33.40;78.30;;;;;;6179987;23;20909;-71
2021/07/30 12:01:30;;;;;;;5.07;4.23;;;33.40;78.20;;;;;;6178202;23;20373;-66
2021/07/30 12:04:12;;;;;;;5.30;3.83;;;33.40;80.70;;;;;;6173818;23;20746;-67
2021/07/30 12:06:44;;;;;;;4.20;3.80;;;33.40;80.60;;;;;;6174610;23;20392;-67
2021/07/30 12:09:11;;;;;;;3.50;3.20;;;33.40;78.10;;;;;;6179709;23;20400;-71
2021/07/30 12:11:41;;;;;;;3.47;3.17;;;33.50;78.50;;;;;;6180890;23;20463;-67
2021/07/30 12:14:08;;;;;;;5.47;3.50;;;33.50;79.00;;;;;;6177881;23;20404;-73
2021/07/30 12:16:34;;;;;;;4.00;3.60;;;33.60;79.10;;;;;;6176838;23;20368;-67
2021/07/30 12:19:00;;;;;;;4.73;4.33;;;33.60;77.60;;;;;;6177833;23;20411;-72
2021/07/30 12:21:26;;;;;;;4.13;3.27;;;33.60;78.00;;;;;;6182206;23;20308;-72
2021/07/30 12:23:51;;;;;;;4.13;3.57;;;33.60;79.30;;;;;;6181044;23;21865;-72
2021/07/30 12:26:37;;;;;;;4.57;3.93;;;33.60;80.80;;;;;;6181384;23;20640;-71
2021/07/30 12:29:04;;;;;;;5.30;3.57;;;33.60;81.70;;;;;;6180598;23;20193;-67
2021/07/30 12:31:31;;;;;;;5.73;3.63;;;33.50;82.90;;;;;;6180460;23;20373;-71
2021/07/30 12:34:14;;;;;;;3.30;2.90;;;33.50;80.60;;;;;;6180808;23;20472;-67
2021/07/30 12:36:40;;;;;;;4.17;3.77;;;33.40;83.60;;;;;;6178897;23;20368;-67
2021/07/30 12:39:06;;;;;;;3.23;3.03;;;33.30;80.40;;;;;;6179350;23;20996;-72
2021/07/30 12:41:35;;;;;;;4.03;3.70;;;33.40;79.80;;;;;;6181797;23;20794;-67
2021/07/30 12:44:16;;;;;;;4.50;3.83;;;33.30;83.10;;;;;;6183787;23;20408;-67
2021/07/30 12:46:43;;;;;;;3.67;3.37;;;33.40;81.60;;;;;;6154803;23;20395;-67
2021/07/30 12:49:11;;;;;;;4.10;3.70;;;33.40;78.80;;;;;;6182360;23;20447;-67
2021/07/30 12:51:38;;;;;;;3.50;3.20;;;33.50;79.40;;;;;;6183480;23;20376;-72